sensor_id;sensor_type;location;lat;lon;timestamp;P1;durP1;ratioP1;P2;durP2;ratioP2
84946;SDS011;75241;51.692;5.196;2024-01-15T00:00:37;3.65;;;2.00;;
84946;SDS011;75241;51.692;5.196;2024-01-15T00:03:05;3.17;;;1.77;;
84946;SDS011;75241;51.692;5.196;2024-01-15T00:05:31;5.15;;;1.80;;
84946;SDS011;75241;51.692;5.196;2024-01-15T00:07:56;6.85;;;2.25;;
84946;SDS011;75241;51.692;5.196;2024-01-15T00:10:22;3.00;;;1.90;;
84946;SDS011;75241;51.692;5.196;2024-01-15T00:12:48;5.43;;;1.88;;
84946;SDS011;75241;51.692;5.196;2024-01-15T00:15:13;5.95;;;2.17;;
84946;SDS011;75241;51.692;5.196;2024-01-15T00:17:39;7.68;;;2.45;;
84946;SDS011;75241;51.692;5.196;2024-01-15T00:20:05;5.05;;;2.03;;
84946;SDS011;75241;51.692;5.196;2024-01-15T00:22:31;6.45;;;2.67;;
84946;SDS011;75241;51.692;5.196;2024-01-15T00:24:57;6.97;;;2.70;;
84946;SDS011;75241;51.692;5.196;2024-01-15T00:27:22;4.18;;;2.63;;
84946;SDS011;75241;51.692;5.196;2024-01-15T00:29:48;5.80;;;3.10;;
84946;SDS011;75241;51.692;5.196;2024-01-15T00:32:15;7.55;;;2.45;;
84946;SDS011;75241;51.692;5.196;2024-01-15T00:34:40;5.95;;;2.47;;
84946;SDS011;75241;51.692;5.196;2024-01-15T00:37:06;10.15;;;2.75;;
84946;SDS011;75241;51.692;5.196;2024-01-15T00:39:32;4.30;;;1.98;;
84946;SDS011;75241;51.692;5.196;2024-01-15T00:41:57;3.22;;;2.08;;
84946;SDS011;75241;51.692;5.196;2024-01-15T00:44:23;7.53;;;2.45;;
84946;SDS011;75241;51.692;5.196;2024-01-15T00:46:48;9.02;;;1.95;;
84946;SDS011;75241;51.692;5.196;2024-01-15T00:49:13;5.93;;;2.03;;
84946;SDS011;75241;51.692;5.196;2024-01-15T00:51:39;6.15;;;1.88;;
84946;SDS011;75241;51.692;5.196;2024-01-15T00:54:04;6.78;;;2.40;;
84946;SDS011;75241;51.692;5.196;2024-01-15T00:56:30;2.85;;;1.35;;
84946;SDS011;75241;51.692;5.196;2024-01-15T00:58:55;3.55;;;1.70;;
84946;SDS011;75241;51.692;5.196;2024-01-15T01:01:21;5.88;;;2.85;;
84946;SDS011;75241;51.692;5.196;2024-01-15T01:03:46;4.38;;;2.30;;
84946;SDS011;75241;51.692;5.196;2024-01-15T01:06:11;6.88;;;2.30;;
84946;SDS011;75241;51.692;5.196;2024-01-15T01:08:37;5.70;;;2.45;;
84946;SDS011;75241;51.692;5.196;2024-01-15T01:11:03;10.63;;;2.58;;
84946;SDS011;75241;51.692;5.196;2024-01-15T01:13:29;9.77;;;2.88;;
84946;SDS011;75241;51.692;5.196;2024-01-15T01:15:54;9.13;;;2.40;;
84946;SDS011;75241;51.692;5.196;2024-01-15T01:18:19;5.47;;;2.53;;
84946;SDS011;75241;51.692;5.196;2024-01-15T01:20:45;7.68;;;2.55;;
84946;SDS011;75241;51.692;5.196;2024-01-15T01:23:10;5.72;;;2.55;;
84946;SDS011;75241;51.692;5.196;2024-01-15T01:25:37;9.07;;;2.60;;
84946;SDS011;75241;51.692;5.196;2024-01-15T01:28:02;4.57;;;2.55;;
84946;SDS011;75241;51.692;5.196;2024-01-15T01:30:28;8.88;;;2.50;;
84946;SDS011;75241;51.692;5.196;2024-01-15T01:32:53;4.00;;;1.90;;
84946;SDS011;75241;51.692;5.196;2024-01-15T01:35:18;6.95;;;2.95;;
84946;SDS011;75241;51.692;5.196;2024-01-15T01:37:44;5.40;;;1.90;;
84946;SDS011;75241;51.692;5.196;2024-01-15T01:40:09;4.07;;;1.58;;
84946;SDS011;75241;51.692;5.196;2024-01-15T01:42:35;7.05;;;2.15;;
84946;SDS011;75241;51.692;5.196;2024-01-15T01:45:00;9.25;;;2.38;;
84946;SDS011;75241;51.692;5.196;2024-01-15T01:47:26;9.93;;;2.78;;
84946;SDS011;75241;51.692;5.196;2024-01-15T01:49:52;6.50;;;2.40;;
84946;SDS011;75241;51.692;5.196;2024-01-15T01:52:18;7.05;;;2.00;;
84946;SDS011;75241;51.692;5.196;2024-01-15T01:54:43;8.27;;;2.03;;
84946;SDS011;75241;51.692;5.196;2024-01-15T01:57:09;7.25;;;1.83;;
84946;SDS011;75241;51.692;5.196;2024-01-15T01:59:35;4.53;;;1.80;;
84946;SDS011;75241;51.692;5.196;2024-01-15T02:02:02;5.15;;;1.70;;
84946;SDS011;75241;51.692;5.196;2024-01-15T02:06:54;6.27;;;2.23;;
84946;SDS011;75241;51.692;5.196;2024-01-15T02:09:19;8.52;;;2.35;;
84946;SDS011;75241;51.692;5.196;2024-01-15T02:11:48;7.13;;;1.88;;
84946;SDS011;75241;51.692;5.196;2024-01-15T02:14:13;4.57;;;1.70;;
84946;SDS011;75241;51.692;5.196;2024-01-15T02:16:39;5.38;;;1.80;;
84946;SDS011;75241;51.692;5.196;2024-01-15T02:19:05;6.10;;;2.30;;
84946;SDS011;75241;51.692;5.196;2024-01-15T02:21:31;9.25;;;1.92;;
84946;SDS011;75241;51.692;5.196;2024-01-15T02:23:57;7.75;;;1.70;;
84946;SDS011;75241;51.692;5.196;2024-01-15T02:26:22;7.63;;;1.67;;
84946;SDS011;75241;51.692;5.196;2024-01-15T02:28:48;12.90;;;2.08;;
84946;SDS011;75241;51.692;5.196;2024-01-15T02:31:13;9.98;;;1.42;;
84946;SDS011;75241;51.692;5.196;2024-01-15T02:33:39;4.43;;;1.60;;
84946;SDS011;75241;51.692;5.196;2024-01-15T02:36:05;7.40;;;1.65;;
84946;SDS011;75241;51.692;5.196;2024-01-15T02:38:30;6.93;;;1.67;;
84946;SDS011;75241;51.692;5.196;2024-01-15T02:40:56;10.18;;;1.75;;
84946;SDS011;75241;51.692;5.196;2024-01-15T02:43:21;2.72;;;1.10;;
84946;SDS011;75241;51.692;5.196;2024-01-15T02:45:46;4.45;;;1.08;;
84946;SDS011;75241;51.692;5.196;2024-01-15T02:48:12;5.43;;;1.02;;
84946;SDS011;75241;51.692;5.196;2024-01-15T02:50:38;6.78;;;1.80;;
84946;SDS011;75241;51.692;5.196;2024-01-15T02:53:03;7.03;;;1.35;;
84946;SDS011;75241;51.692;5.196;2024-01-15T02:55:29;3.97;;;1.75;;
84946;SDS011;75241;51.692;5.196;2024-01-15T02:57:54;7.85;;;1.42;;
84946;SDS011;75241;51.692;5.196;2024-01-15T03:00:20;6.95;;;1.70;;
84946;SDS011;75241;51.692;5.196;2024-01-15T03:02:45;9.35;;;1.50;;
84946;SDS011;75241;51.692;5.196;2024-01-15T03:05:11;7.22;;;1.60;;
84946;SDS011;75241;51.692;5.196;2024-01-15T03:07:36;5.85;;;1.30;;
84946;SDS011;75241;51.692;5.196;2024-01-15T03:10:02;4.65;;;1.70;;
84946;SDS011;75241;51.692;5.196;2024-01-15T03:12:27;5.28;;;2.13;;
84946;SDS011;75241;51.692;5.196;2024-01-15T03:14:53;3.28;;;1.40;;
84946;SDS011;75241;51.692;5.196;2024-01-15T03:17:19;8.68;;;1.55;;
84946;SDS011;75241;51.692;5.196;2024-01-15T03:19:44;9.75;;;1.40;;
84946;SDS011;75241;51.692;5.196;2024-01-15T03:22:09;8.75;;;1.42;;
84946;SDS011;75241;51.692;5.196;2024-01-15T03:24:35;2.72;;;0.90;;
84946;SDS011;75241;51.692;5.196;2024-01-15T03:27:01;5.22;;;1.05;;
84946;SDS011;75241;51.692;5.196;2024-01-15T03:29:27;4.63;;;0.98;;
84946;SDS011;75241;51.692;5.196;2024-01-15T03:31:52;2.78;;;1.20;;
84946;SDS011;75241;51.692;5.196;2024-01-15T03:34:18;6.32;;;1.30;;
84946;SDS011;75241;51.692;5.196;2024-01-15T03:36:43;9.15;;;2.30;;
84946;SDS011;75241;51.692;5.196;2024-01-15T03:39:09;4.55;;;1.80;;
84946;SDS011;75241;51.692;5.196;2024-01-15T03:41:34;7.18;;;2.55;;
84946;SDS011;75241;51.692;5.196;2024-01-15T03:43:59;10.70;;;2.40;;
84946;SDS011;75241;51.692;5.196;2024-01-15T03:46:25;7.80;;;1.73;;
84946;SDS011;75241;51.692;5.196;2024-01-15T03:48:50;11.18;;;1.80;;
84946;SDS011;75241;51.692;5.196;2024-01-15T03:51:19;5.72;;;1.85;;
84946;SDS011;75241;51.692;5.196;2024-01-15T03:53:45;8.75;;;2.25;;
84946;SDS011;75241;51.692;5.196;2024-01-15T03:56:11;6.07;;;1.88;;
84946;SDS011;75241;51.692;5.196;2024-01-15T03:58:36;8.68;;;2.03;;
84946;SDS011;75241;51.692;5.196;2024-01-15T04:01:02;8.90;;;2.95;;
84946;SDS011;75241;51.692;5.196;2024-01-15T04:03:28;11.60;;;2.20;;
84946;SDS011;75241;51.692;5.196;2024-01-15T04:05:53;6.57;;;1.70;;
84946;SDS011;75241;51.692;5.196;2024-01-15T04:08:18;8.15;;;1.73;;
84946;SDS011;75241;51.692;5.196;2024-01-15T04:10:44;5.18;;;2.22;;
84946;SDS011;75241;51.692;5.196;2024-01-15T04:13:09;8.43;;;2.80;;
84946;SDS011;75241;51.692;5.196;2024-01-15T04:15:35;3.13;;;1.48;;
84946;SDS011;75241;51.692;5.196;2024-01-15T04:18:02;13.77;;;2.50;;
84946;SDS011;75241;51.692;5.196;2024-01-15T04:20:27;5.68;;;1.50;;
84946;SDS011;75241;51.692;5.196;2024-01-15T04:22:53;6.45;;;1.38;;
84946;SDS011;75241;51.692;5.196;2024-01-15T04:25:18;5.07;;;1.55;;
84946;SDS011;75241;51.692;5.196;2024-01-15T04:27:43;9.10;;;2.25;;
84946;SDS011;75241;51.692;5.196;2024-01-15T04:30:09;4.65;;;1.33;;
84946;SDS011;75241;51.692;5.196;2024-01-15T04:32:35;3.70;;;1.02;;
84946;SDS011;75241;51.692;5.196;2024-01-15T04:35:01;10.77;;;1.08;;
84946;SDS011;75241;51.692;5.196;2024-01-15T04:37:26;2.55;;;0.70;;
84946;SDS011;75241;51.692;5.196;2024-01-15T04:39:52;2.65;;;0.80;;
84946;SDS011;75241;51.692;5.196;2024-01-15T04:42:20;4.43;;;0.85;;
84946;SDS011;75241;51.692;5.196;2024-01-15T04:44:48;1.52;;;0.35;;
84946;SDS011;75241;51.692;5.196;2024-01-15T04:47:13;1.33;;;0.65;;
84946;SDS011;75241;51.692;5.196;2024-01-15T04:49:39;3.38;;;1.05;;
84946;SDS011;75241;51.692;5.196;2024-01-15T04:52:04;1.65;;;0.47;;
84946;SDS011;75241;51.692;5.196;2024-01-15T04:54:30;2.45;;;0.60;;
84946;SDS011;75241;51.692;5.196;2024-01-15T04:56:55;2.33;;;0.50;;
84946;SDS011;75241;51.692;5.196;2024-01-15T04:59:20;3.60;;;1.17;;
84946;SDS011;75241;51.692;5.196;2024-01-15T05:01:46;3.15;;;0.60;;
84946;SDS011;75241;51.692;5.196;2024-01-15T05:04:12;2.13;;;0.73;;
84946;SDS011;75241;51.692;5.196;2024-01-15T05:06:37;2.35;;;0.70;;
84946;SDS011;75241;51.692;5.196;2024-01-15T05:09:03;4.05;;;0.88;;
84946;SDS011;75241;51.692;5.196;2024-01-15T05:11:29;2.35;;;0.50;;
84946;SDS011;75241;51.692;5.196;2024-01-15T05:13:54;2.83;;;0.88;;
84946;SDS011;75241;51.692;5.196;2024-01-15T05:16:20;1.73;;;0.70;;
84946;SDS011;75241;51.692;5.196;2024-01-15T05:18:45;1.80;;;0.47;;
84946;SDS011;75241;51.692;5.196;2024-01-15T05:21:11;4.82;;;0.73;;
84946;SDS011;75241;51.692;5.196;2024-01-15T05:23:37;4.43;;;0.70;;
84946;SDS011;75241;51.692;5.196;2024-01-15T05:26:03;3.35;;;0.80;;
84946;SDS011;75241;51.692;5.196;2024-01-15T05:28:28;4.32;;;1.52;;
84946;SDS011;75241;51.692;5.196;2024-01-15T05:30:54;4.00;;;1.17;;
84946;SDS011;75241;51.692;5.196;2024-01-15T05:33:20;2.47;;;1.20;;
84946;SDS011;75241;51.692;5.196;2024-01-15T05:35:49;2.17;;;0.82;;
84946;SDS011;75241;51.692;5.196;2024-01-15T05:38:15;2.08;;;1.00;;
84946;SDS011;75241;51.692;5.196;2024-01-15T05:40:41;3.75;;;1.02;;
84946;SDS011;75241;51.692;5.196;2024-01-15T05:43:06;4.38;;;1.63;;
84946;SDS011;75241;51.692;5.196;2024-01-15T05:45:33;1.73;;;1.00;;
84946;SDS011;75241;51.692;5.196;2024-01-15T05:47:59;2.67;;;1.15;;
84946;SDS011;75241;51.692;5.196;2024-01-15T05:50:25;2.40;;;1.40;;
84946;SDS011;75241;51.692;5.196;2024-01-15T05:52:50;4.63;;;1.52;;
84946;SDS011;75241;51.692;5.196;2024-01-15T05:55:16;7.65;;;1.98;;
84946;SDS011;75241;51.692;5.196;2024-01-15T06:00:08;3.33;;;1.53;;
84946;SDS011;75241;51.692;5.196;2024-01-15T06:02:35;4.47;;;1.70;;
84946;SDS011;75241;51.692;5.196;2024-01-15T06:05:01;3.65;;;1.77;;
84946;SDS011;75241;51.692;5.196;2024-01-15T06:07:27;4.15;;;2.35;;
84946;SDS011;75241;51.692;5.196;2024-01-15T06:09:53;6.40;;;2.83;;
84946;SDS011;75241;51.692;5.196;2024-01-15T06:12:18;5.72;;;2.92;;
84946;SDS011;75241;51.692;5.196;2024-01-15T06:14:44;4.65;;;2.55;;
84946;SDS011;75241;51.692;5.196;2024-01-15T06:17:09;4.90;;;3.28;;
84946;SDS011;75241;51.692;5.196;2024-01-15T06:19:34;6.38;;;3.40;;
84946;SDS011;75241;51.692;5.196;2024-01-15T06:22:00;7.97;;;4.22;;
84946;SDS011;75241;51.692;5.196;2024-01-15T06:24:25;6.28;;;3.85;;
84946;SDS011;75241;51.692;5.196;2024-01-15T06:26:50;7.30;;;4.10;;
84946;SDS011;75241;51.692;5.196;2024-01-15T06:29:16;8.15;;;4.47;;
84946;SDS011;75241;51.692;5.196;2024-01-15T06:31:41;9.27;;;4.50;;
84946;SDS011;75241;51.692;5.196;2024-01-15T06:34:07;13.45;;;5.15;;
84946;SDS011;75241;51.692;5.196;2024-01-15T06:36:32;6.90;;;5.05;;
84946;SDS011;75241;51.692;5.196;2024-01-15T06:38:58;8.20;;;4.40;;
84946;SDS011;75241;51.692;5.196;2024-01-15T06:41:23;9.38;;;5.00;;
84946;SDS011;75241;51.692;5.196;2024-01-15T06:43:50;7.70;;;4.55;;
84946;SDS011;75241;51.692;5.196;2024-01-15T06:46:19;8.57;;;4.63;;
84946;SDS011;75241;51.692;5.196;2024-01-15T06:48:46;8.63;;;4.70;;
84946;SDS011;75241;51.692;5.196;2024-01-15T06:51:11;10.23;;;4.45;;
84946;SDS011;75241;51.692;5.196;2024-01-15T06:53:37;6.75;;;4.20;;
84946;SDS011;75241;51.692;5.196;2024-01-15T06:56:02;7.43;;;4.60;;
84946;SDS011;75241;51.692;5.196;2024-01-15T06:58:28;9.77;;;4.88;;
84946;SDS011;75241;51.692;5.196;2024-01-15T07:00:53;8.27;;;3.80;;
84946;SDS011;75241;51.692;5.196;2024-01-15T07:03:19;7.10;;;3.58;;
84946;SDS011;75241;51.692;5.196;2024-01-15T07:05:44;6.47;;;3.33;;
84946;SDS011;75241;51.692;5.196;2024-01-15T07:08:09;5.93;;;3.80;;
84946;SDS011;75241;51.692;5.196;2024-01-15T07:10:35;6.85;;;3.83;;
84946;SDS011;75241;51.692;5.196;2024-01-15T07:13:00;10.48;;;4.25;;
84946;SDS011;75241;51.692;5.196;2024-01-15T07:15:26;6.25;;;3.70;;
84946;SDS011;75241;51.692;5.196;2024-01-15T07:17:51;7.15;;;3.60;;
84946;SDS011;75241;51.692;5.196;2024-01-15T07:20:16;5.72;;;3.78;;
84946;SDS011;75241;51.692;5.196;2024-01-15T07:22:44;5.68;;;2.83;;
84946;SDS011;75241;51.692;5.196;2024-01-15T07:25:10;5.45;;;3.80;;
84946;SDS011;75241;51.692;5.196;2024-01-15T07:27:35;9.05;;;4.47;;
84946;SDS011;75241;51.692;5.196;2024-01-15T07:30:00;5.18;;;2.72;;
84946;SDS011;75241;51.692;5.196;2024-01-15T07:32:26;3.85;;;2.88;;
84946;SDS011;75241;51.692;5.196;2024-01-15T07:34:51;5.60;;;3.80;;
84946;SDS011;75241;51.692;5.196;2024-01-15T07:37:17;5.75;;;3.40;;
84946;SDS011;75241;51.692;5.196;2024-01-15T07:39:42;5.93;;;3.58;;
84946;SDS011;75241;51.692;5.196;2024-01-15T07:42:07;9.48;;;3.67;;
84946;SDS011;75241;51.692;5.196;2024-01-15T07:44:33;7.80;;;3.42;;
84946;SDS011;75241;51.692;5.196;2024-01-15T07:46:58;6.03;;;4.18;;
84946;SDS011;75241;51.692;5.196;2024-01-15T07:49:24;7.10;;;4.07;;
84946;SDS011;75241;51.692;5.196;2024-01-15T07:51:49;6.65;;;4.25;;
84946;SDS011;75241;51.692;5.196;2024-01-15T07:54:15;6.68;;;4.07;;
84946;SDS011;75241;51.692;5.196;2024-01-15T07:56:53;8.93;;;5.18;;
84946;SDS011;75241;51.692;5.196;2024-01-15T07:59:19;9.40;;;4.68;;
84946;SDS011;75241;51.692;5.196;2024-01-15T08:01:45;7.95;;;3.97;;
84946;SDS011;75241;51.692;5.196;2024-01-15T08:04:10;9.15;;;4.10;;
84946;SDS011;75241;51.692;5.196;2024-01-15T08:09:03;6.20;;;3.85;;
84946;SDS011;75241;51.692;5.196;2024-01-15T08:11:29;11.48;;;5.68;;
84946;SDS011;75241;51.692;5.196;2024-01-15T08:13:54;7.97;;;5.10;;
84946;SDS011;75241;51.692;5.196;2024-01-15T08:16:20;9.43;;;5.32;;
84946;SDS011;75241;51.692;5.196;2024-01-15T08:18:45;9.38;;;5.97;;
84946;SDS011;75241;51.692;5.196;2024-01-15T08:21:10;10.32;;;6.75;;
84946;SDS011;75241;51.692;5.196;2024-01-15T08:23:36;10.48;;;7.50;;
84946;SDS011;75241;51.692;5.196;2024-01-15T08:26:01;9.43;;;6.95;;
84946;SDS011;75241;51.692;5.196;2024-01-15T08:28:27;10.30;;;7.03;;
84946;SDS011;75241;51.692;5.196;2024-01-15T08:30:52;14.60;;;7.40;;
84946;SDS011;75241;51.692;5.196;2024-01-15T08:33:17;12.23;;;7.13;;
84946;SDS011;75241;51.692;5.196;2024-01-15T08:35:43;8.70;;;6.47;;
84946;SDS011;75241;51.692;5.196;2024-01-15T08:38:08;9.23;;;6.32;;
84946;SDS011;75241;51.692;5.196;2024-01-15T08:40:33;8.70;;;5.70;;
84946;SDS011;75241;51.692;5.196;2024-01-15T08:42:59;9.00;;;6.40;;
84946;SDS011;75241;51.692;5.196;2024-01-15T08:45:24;7.28;;;5.05;;
84946;SDS011;75241;51.692;5.196;2024-01-15T08:47:50;8.80;;;4.85;;
84946;SDS011;75241;51.692;5.196;2024-01-15T08:50:15;8.93;;;4.65;;
84946;SDS011;75241;51.692;5.196;2024-01-15T08:52:41;7.03;;;4.90;;
84946;SDS011;75241;51.692;5.196;2024-01-15T08:55:06;7.97;;;3.65;;
84946;SDS011;75241;51.692;5.196;2024-01-15T08:57:32;6.18;;;3.40;;
84946;SDS011;75241;51.692;5.196;2024-01-15T08:59:57;5.80;;;2.70;;
84946;SDS011;75241;51.692;5.196;2024-01-15T09:02:24;5.32;;;3.00;;
84946;SDS011;75241;51.692;5.196;2024-01-15T09:04:49;4.65;;;2.35;;
84946;SDS011;75241;51.692;5.196;2024-01-15T09:07:15;5.85;;;2.03;;
84946;SDS011;75241;51.692;5.196;2024-01-15T09:09:40;6.50;;;2.00;;
84946;SDS011;75241;51.692;5.196;2024-01-15T09:12:07;4.70;;;2.70;;
84946;SDS011;75241;51.692;5.196;2024-01-15T09:14:32;5.22;;;1.48;;
84946;SDS011;75241;51.692;5.196;2024-01-15T09:16:59;3.65;;;1.55;;
84946;SDS011;75241;51.692;5.196;2024-01-15T09:19:24;7.53;;;2.05;;
84946;SDS011;75241;51.692;5.196;2024-01-15T09:21:50;4.80;;;1.10;;
84946;SDS011;75241;51.692;5.196;2024-01-15T09:24:15;4.70;;;1.58;;
84946;SDS011;75241;51.692;5.196;2024-01-15T09:26:41;4.22;;;0.82;;
84946;SDS011;75241;51.692;5.196;2024-01-15T09:29:06;3.13;;;0.98;;
84946;SDS011;75241;51.692;5.196;2024-01-15T09:31:31;6.68;;;1.67;;
84946;SDS011;75241;51.692;5.196;2024-01-15T09:33:57;3.63;;;1.08;;
84946;SDS011;75241;51.692;5.196;2024-01-15T09:38:50;4.85;;;1.55;;
84946;SDS011;75241;51.692;5.196;2024-01-15T09:41:16;7.47;;;2.10;;
84946;SDS011;75241;51.692;5.196;2024-01-15T09:43:41;8.15;;;2.10;;
84946;SDS011;75241;51.692;5.196;2024-01-15T09:46:07;6.40;;;1.80;;
84946;SDS011;75241;51.692;5.196;2024-01-15T09:48:34;8.05;;;3.03;;
84946;SDS011;75241;51.692;5.196;2024-01-15T09:51:01;9.57;;;2.58;;
84946;SDS011;75241;51.692;5.196;2024-01-15T09:53:27;11.07;;;2.00;;
84946;SDS011;75241;51.692;5.196;2024-01-15T09:55:52;8.27;;;3.22;;
84946;SDS011;75241;51.692;5.196;2024-01-15T09:58:18;5.50;;;1.88;;
84946;SDS011;75241;51.692;5.196;2024-01-15T10:00:44;3.65;;;1.95;;
84946;SDS011;75241;51.692;5.196;2024-01-15T10:03:09;6.72;;;1.83;;
84946;SDS011;75241;51.692;5.196;2024-01-15T10:05:36;4.65;;;1.58;;
84946;SDS011;75241;51.692;5.196;2024-01-15T10:08:02;7.93;;;2.70;;
84946;SDS011;75241;51.692;5.196;2024-01-15T10:10:28;6.45;;;2.10;;
84946;SDS011;75241;51.692;5.196;2024-01-15T10:12:54;2.92;;;1.17;;
84946;SDS011;75241;51.692;5.196;2024-01-15T10:15:23;4.75;;;1.00;;
84946;SDS011;75241;51.692;5.196;2024-01-15T10:17:49;6.20;;;1.33;;
84946;SDS011;75241;51.692;5.196;2024-01-15T10:20:15;4.93;;;1.15;;
84946;SDS011;75241;51.692;5.196;2024-01-15T10:22:41;4.72;;;1.33;;
84946;SDS011;75241;51.692;5.196;2024-01-15T10:27:37;6.13;;;1.33;;
84946;SDS011;75241;51.692;5.196;2024-01-15T10:30:02;4.70;;;1.60;;
84946;SDS011;75241;51.692;5.196;2024-01-15T10:32:28;3.25;;;1.90;;
84946;SDS011;75241;51.692;5.196;2024-01-15T10:34:54;6.97;;;1.98;;
84946;SDS011;75241;51.692;5.196;2024-01-15T10:37:19;6.03;;;2.88;;
84946;SDS011;75241;51.692;5.196;2024-01-15T10:39:46;5.30;;;3.20;;
84946;SDS011;75241;51.692;5.196;2024-01-15T10:42:11;5.50;;;2.72;;
84946;SDS011;75241;51.692;5.196;2024-01-15T10:44:37;6.07;;;3.45;;
84946;SDS011;75241;51.692;5.196;2024-01-15T10:47:02;9.68;;;5.05;;
84946;SDS011;75241;51.692;5.196;2024-01-15T10:49:29;8.35;;;4.18;;
84946;SDS011;75241;51.692;5.196;2024-01-15T10:51:55;9.50;;;4.85;;
84946;SDS011;75241;51.692;5.196;2024-01-15T10:54:21;14.07;;;5.38;;
84946;SDS011;75241;51.692;5.196;2024-01-15T10:56:48;8.02;;;3.45;;
84946;SDS011;75241;51.692;5.196;2024-01-15T10:59:15;6.00;;;2.20;;
84946;SDS011;75241;51.692;5.196;2024-01-15T11:01:41;7.20;;;2.00;;
84946;SDS011;75241;51.692;5.196;2024-01-15T11:04:07;3.88;;;1.65;;
84946;SDS011;75241;51.692;5.196;2024-01-15T11:06:42;8.23;;;2.13;;
84946;SDS011;75241;51.692;5.196;2024-01-15T11:09:10;5.53;;;1.63;;
84946;SDS011;75241;51.692;5.196;2024-01-15T11:11:35;4.30;;;1.15;;
84946;SDS011;75241;51.692;5.196;2024-01-15T11:14:02;5.13;;;1.50;;
84946;SDS011;75241;51.692;5.196;2024-01-15T11:16:53;1.58;;;1.48;;
84946;SDS011;75241;51.692;5.196;2024-01-15T11:19:22;5.55;;;2.30;;
84946;SDS011;75241;51.692;5.196;2024-01-15T11:21:47;3.28;;;1.30;;
84946;SDS011;75241;51.692;5.196;2024-01-15T11:24:32;4.55;;;1.60;;
84946;SDS011;75241;51.692;5.196;2024-01-15T11:27:01;4.03;;;1.70;;
84946;SDS011;75241;51.692;5.196;2024-01-15T11:31:56;5.47;;;1.42;;
84946;SDS011;75241;51.692;5.196;2024-01-15T11:37:14;3.05;;;1.30;;
84946;SDS011;75241;51.692;5.196;2024-01-15T11:39:40;5.95;;;1.80;;
84946;SDS011;75241;51.692;5.196;2024-01-15T11:42:07;2.42;;;1.90;;
84946;SDS011;75241;51.692;5.196;2024-01-15T11:44:34;6.25;;;2.85;;
84946;SDS011;75241;51.692;5.196;2024-01-15T11:47:00;4.45;;;2.97;;
84946;SDS011;75241;51.692;5.196;2024-01-15T11:52:31;3.53;;;3.10;;
84946;SDS011;75241;51.692;5.196;2024-01-15T11:55:46;4.63;;;2.95;;
84946;SDS011;75241;51.692;5.196;2024-01-15T11:57:55;4.60;;;3.60;;
84946;SDS011;75241;51.692;5.196;2024-01-15T12:00:22;7.80;;;3.67;;
84946;SDS011;75241;51.692;5.196;2024-01-15T12:02:48;4.03;;;3.45;;
84946;SDS011;75241;51.692;5.196;2024-01-15T12:07:48;4.35;;;2.38;;
84946;SDS011;75241;51.692;5.196;2024-01-15T12:10:18;3.30;;;3.00;;
84946;SDS011;75241;51.692;5.196;2024-01-15T12:12:53;3.78;;;2.97;;
84946;SDS011;75241;51.692;5.196;2024-01-15T12:15:28;3.50;;;2.97;;
84946;SDS011;75241;51.692;5.196;2024-01-15T12:17:55;4.75;;;2.63;;
84946;SDS011;75241;51.692;5.196;2024-01-15T12:20:23;7.07;;;3.42;;
84946;SDS011;75241;51.692;5.196;2024-01-15T12:22:49;7.07;;;3.25;;
84946;SDS011;75241;51.692;5.196;2024-01-15T12:25:14;4.65;;;3.03;;
84946;SDS011;75241;51.692;5.196;2024-01-15T12:27:40;4.20;;;3.17;;
84946;SDS011;75241;51.692;5.196;2024-01-15T12:30:05;7.40;;;3.92;;
84946;SDS011;75241;51.692;5.196;2024-01-15T12:32:32;5.47;;;3.70;;
84946;SDS011;75241;51.692;5.196;2024-01-15T12:34:57;5.53;;;4.03;;
84946;SDS011;75241;51.692;5.196;2024-01-15T12:37:23;8.60;;;3.72;;
84946;SDS011;75241;51.692;5.196;2024-01-15T12:39:51;7.97;;;3.88;;
84946;SDS011;75241;51.692;5.196;2024-01-15T12:42:17;10.88;;;4.90;;
84946;SDS011;75241;51.692;5.196;2024-01-15T12:44:45;9.75;;;5.43;;
84946;SDS011;75241;51.692;5.196;2024-01-15T12:47:11;6.35;;;4.15;;
84946;SDS011;75241;51.692;5.196;2024-01-15T12:49:37;7.80;;;4.45;;
84946;SDS011;75241;51.692;5.196;2024-01-15T12:52:02;6.20;;;4.25;;
84946;SDS011;75241;51.692;5.196;2024-01-15T12:54:28;4.97;;;4.00;;
84946;SDS011;75241;51.692;5.196;2024-01-15T12:56:54;4.22;;;3.83;;
84946;SDS011;75241;51.692;5.196;2024-01-15T12:59:19;6.63;;;4.15;;
84946;SDS011;75241;51.692;5.196;2024-01-15T13:01:45;6.30;;;3.92;;
84946;SDS011;75241;51.692;5.196;2024-01-15T13:04:11;6.88;;;3.85;;
84946;SDS011;75241;51.692;5.196;2024-01-15T13:06:37;4.22;;;3.42;;
84946;SDS011;75241;51.692;5.196;2024-01-15T13:09:02;4.10;;;3.70;;
84946;SDS011;75241;51.692;5.196;2024-01-15T13:11:30;9.15;;;4.28;;
84946;SDS011;75241;51.692;5.196;2024-01-15T13:13:56;8.60;;;4.13;;
84946;SDS011;75241;51.692;5.196;2024-01-15T13:16:22;7.80;;;2.78;;
84946;SDS011;75241;51.692;5.196;2024-01-15T13:18:47;5.20;;;2.67;;
84946;SDS011;75241;51.692;5.196;2024-01-15T13:21:14;5.85;;;1.75;;
84946;SDS011;75241;51.692;5.196;2024-01-15T13:23:40;7.13;;;1.80;;
84946;SDS011;75241;51.692;5.196;2024-01-15T13:26:05;7.57;;;2.67;;
84946;SDS011;75241;51.692;5.196;2024-01-15T13:28:32;8.40;;;2.45;;
84946;SDS011;75241;51.692;5.196;2024-01-15T13:30:57;7.88;;;2.10;;
84946;SDS011;75241;51.692;5.196;2024-01-15T13:33:22;3.38;;;1.83;;
84946;SDS011;75241;51.692;5.196;2024-01-15T13:35:48;4.93;;;2.00;;
84946;SDS011;75241;51.692;5.196;2024-01-15T13:38:16;6.95;;;2.15;;
84946;SDS011;75241;51.692;5.196;2024-01-15T13:40:41;7.47;;;2.25;;
84946;SDS011;75241;51.692;5.196;2024-01-15T13:43:07;5.38;;;2.42;;
84946;SDS011;75241;51.692;5.196;2024-01-15T13:45:36;7.22;;;2.70;;
84946;SDS011;75241;51.692;5.196;2024-01-15T13:48:02;11.07;;;3.58;;
84946;SDS011;75241;51.692;5.196;2024-01-15T13:50:30;9.43;;;1.90;;
84946;SDS011;75241;51.692;5.196;2024-01-15T13:52:56;4.30;;;2.03;;
84946;SDS011;75241;51.692;5.196;2024-01-15T13:55:21;9.35;;;2.47;;
84946;SDS011;75241;51.692;5.196;2024-01-15T13:57:47;8.65;;;1.70;;
84946;SDS011;75241;51.692;5.196;2024-01-15T14:00:12;5.95;;;1.70;;
84946;SDS011;75241;51.692;5.196;2024-01-15T14:02:43;5.80;;;2.00;;
84946;SDS011;75241;51.692;5.196;2024-01-15T14:05:08;4.25;;;1.88;;
84946;SDS011;75241;51.692;5.196;2024-01-15T14:07:34;3.20;;;1.85;;
84946;SDS011;75241;51.692;5.196;2024-01-15T14:09:59;6.18;;;1.98;;
84946;SDS011;75241;51.692;5.196;2024-01-15T14:12:25;7.28;;;2.25;;
84946;SDS011;75241;51.692;5.196;2024-01-15T14:14:51;5.00;;;1.67;;
84946;SDS011;75241;51.692;5.196;2024-01-15T14:17:17;6.50;;;2.35;;
84946;SDS011;75241;51.692;5.196;2024-01-15T14:19:43;6.25;;;2.53;;
84946;SDS011;75241;51.692;5.196;2024-01-15T14:22:08;9.80;;;2.63;;
84946;SDS011;75241;51.692;5.196;2024-01-15T14:24:33;6.13;;;2.10;;
84946;SDS011;75241;51.692;5.196;2024-01-15T14:26:59;4.00;;;2.42;;
84946;SDS011;75241;51.692;5.196;2024-01-15T14:29:27;9.27;;;2.92;;
84946;SDS011;75241;51.692;5.196;2024-01-15T14:31:53;7.32;;;2.40;;
84946;SDS011;75241;51.692;5.196;2024-01-15T14:34:18;6.15;;;2.53;;
84946;SDS011;75241;51.692;5.196;2024-01-15T14:36:43;6.20;;;2.33;;
84946;SDS011;75241;51.692;5.196;2024-01-15T14:39:09;9.40;;;2.47;;
84946;SDS011;75241;51.692;5.196;2024-01-15T14:41:35;11.77;;;3.10;;
84946;SDS011;75241;51.692;5.196;2024-01-15T14:44:00;8.30;;;2.97;;
84946;SDS011;75241;51.692;5.196;2024-01-15T14:46:25;8.68;;;2.25;;
84946;SDS011;75241;51.692;5.196;2024-01-15T14:48:52;7.95;;;2.10;;
84946;SDS011;75241;51.692;5.196;2024-01-15T14:51:18;2.47;;;0.98;;
84946;SDS011;75241;51.692;5.196;2024-01-15T14:53:43;2.45;;;0.90;;
84946;SDS011;75241;51.692;5.196;2024-01-15T14:56:09;6.97;;;1.50;;
84946;SDS011;75241;51.692;5.196;2024-01-15T14:58:34;3.58;;;0.98;;
84946;SDS011;75241;51.692;5.196;2024-01-15T15:01:00;3.85;;;1.15;;
84946;SDS011;75241;51.692;5.196;2024-01-15T15:03:25;6.68;;;1.52;;